sensor_id;sensor_type;location;lat;lon;timestamp;pressure;altitude;pressure_sealevel;temperature;humidity
70971;BME280;58632;51.718;19.446;2024-01-30T00:00:13;101251.92;;;-0.77;100.00
70971;BME280;58632;51.718;19.446;2024-01-30T00:02:58;101255.04;;;-0.81;100.00
70971;BME280;58632;51.718;19.446;2024-01-30T00:05:23;101254.77;;;-0.86;100.00
70971;BME280;58632;51.718;19.446;2024-01-30T00:07:49;101254.06;;;-0.90;100.00
70971;BME280;58632;51.718;19.446;2024-01-30T00:10:15;101254.98;;;-0.93;100.00
70971;BME280;58632;51.718;19.446;2024-01-30T00:12:40;101257.55;;;-0.96;100.00
70971;BME280;58632;51.718;19.446;2024-01-30T00:15:06;101260.41;;;-0.98;100.00
70971;BME280;58632;51.718;19.446;2024-01-30T00:17:37;101263.81;;;-1.02;100.00
70971;BME280;58632;51.718;19.446;2024-01-30T00:20:02;101261.00;;;-1.05;100.00
70971;BME280;58632;51.718;19.446;2024-01-30T00:22:30;101255.30;;;-1.05;100.00
70971;BME280;58632;51.718;19.446;2024-01-30T00:24:56;101256.94;;;-1.04;100.00
70971;BME280;58632;51.718;19.446;2024-01-30T00:27:21;101254.04;;;-1.04;100.00
70971;BME280;58632;51.718;19.446;2024-01-30T00:29:47;101258.52;;;-1.03;100.00
70971;BME280;58632;51.718;19.446;2024-01-30T00:32:12;101258.80;;;-1.00;100.00
70971;BME280;58632;51.718;19.446;2024-01-30T00:34:38;101257.92;;;-0.96;100.00
70971;BME280;58632;51.718;19.446;2024-01-30T00:37:03;101255.94;;;-0.93;100.00
70971;BME280;58632;51.718;19.446;2024-01-30T00:39:29;101252.83;;;-0.92;100.00
70971;BME280;58632;51.718;19.446;2024-01-30T00:41:54;101249.77;;;-0.89;100.00
70971;BME280;58632;51.718;19.446;2024-01-30T00:44:19;101253.39;;;-0.87;100.00
70971;BME280;58632;51.718;19.446;2024-01-30T00:46:45;101253.39;;;-0.85;100.00
70971;BME280;58632;51.718;19.446;2024-01-30T00:49:10;101249.67;;;-0.84;100.00
70971;BME280;58632;51.718;19.446;2024-01-30T00:51:36;101248.02;;;-0.85;100.00
70971;BME280;58632;51.718;19.446;2024-01-30T00:54:04;101243.48;;;-0.89;100.00
70971;BME280;58632;51.718;19.446;2024-01-30T00:56:31;101239.64;;;-0.93;100.00
70971;BME280;58632;51.718;19.446;2024-01-30T00:58:56;101238.16;;;-0.97;100.00
70971;BME280;58632;51.718;19.446;2024-01-30T01:01:22;101234.89;;;-0.99;100.00
70971;BME280;58632;51.718;19.446;2024-01-30T01:03:49;101230.47;;;-1.01;100.00
70971;BME280;58632;51.718;19.446;2024-01-30T01:06:15;101230.59;;;-1.03;100.00
70971;BME280;58632;51.718;19.446;2024-01-30T01:08:40;101232.95;;;-1.05;100.00
70971;BME280;58632;51.718;19.446;2024-01-30T01:11:06;101230.52;;;-1.07;100.00
70971;BME280;58632;51.718;19.446;2024-01-30T01:13:31;101228.28;;;-1.07;100.00
70971;BME280;58632;51.718;19.446;2024-01-30T01:15:57;101223.58;;;-1.10;100.00
70971;BME280;58632;51.718;19.446;2024-01-30T01:18:22;101221.35;;;-1.09;100.00
70971;BME280;58632;51.718;19.446;2024-01-30T01:20:48;101217.15;;;-1.06;100.00
70971;BME280;58632;51.718;19.446;2024-01-30T01:23:13;101215.58;;;-1.01;100.00
70971;BME280;58632;51.718;19.446;2024-01-30T01:25:39;101211.96;;;-0.94;100.00
70971;BME280;58632;51.718;19.446;2024-01-30T01:28:04;101207.11;;;-0.89;100.00
70971;BME280;58632;51.718;19.446;2024-01-30T01:30:32;101209.69;;;-0.84;100.00
70971;BME280;58632;51.718;19.446;2024-01-30T01:32:57;101208.92;;;-0.78;100.00
70971;BME280;58632;51.718;19.446;2024-01-30T01:35:26;101210.73;;;-0.73;100.00
70971;BME280;58632;51.718;19.446;2024-01-30T01:37:52;101212.50;;;-0.70;100.00
70971;BME280;58632;51.718;19.446;2024-01-30T01:40:23;101214.19;;;-0.66;100.00
70971;BME280;58632;51.718;19.446;2024-01-30T01:42:49;101216.75;;;-0.64;100.00
70971;BME280;58632;51.718;19.446;2024-01-30T01:45:14;101214.39;;;-0.64;100.00
70971;BME280;58632;51.718;19.446;2024-01-30T01:47:40;101216.91;;;-0.65;100.00
70971;BME280;58632;51.718;19.446;2024-01-30T01:50:06;101217.13;;;-0.68;100.00
70971;BME280;58632;51.718;19.446;2024-01-30T01:52:32;101218.06;;;-0.72;100.00
70971;BME280;58632;51.718;19.446;2024-01-30T01:54:58;101217.03;;;-0.76;100.00
70971;BME280;58632;51.718;19.446;2024-01-30T01:57:23;101214.20;;;-0.82;100.00
70971;BME280;58632;51.718;19.446;2024-01-30T01:59:49;101216.00;;;-0.89;100.00
70971;BME280;58632;51.718;19.446;2024-01-30T02:02:14;101214.53;;;-0.97;100.00
70971;BME280;58632;51.718;19.446;2024-01-30T02:04:41;101213.59;;;-1.05;100.00
70971;BME280;58632;51.718;19.446;2024-01-30T02:07:06;101217.90;;;-1.08;100.00
70971;BME280;58632;51.718;19.446;2024-01-30T02:09:32;101220.80;;;-1.08;100.00
70971;BME280;58632;51.718;19.446;2024-01-30T02:11:57;101219.52;;;-1.06;100.00
70971;BME280;58632;51.718;19.446;2024-01-30T02:14:23;101216.61;;;-1.04;100.00
70971;BME280;58632;51.718;19.446;2024-01-30T02:19:36;101212.98;;;-1.05;100.00
70971;BME280;58632;51.718;19.446;2024-01-30T02:22:02;101213.48;;;-1.08;100.00
70971;BME280;58632;51.718;19.446;2024-01-30T02:24:28;101215.27;;;-1.09;100.00
70971;BME280;58632;51.718;19.446;2024-01-30T02:26:54;101214.06;;;-1.12;100.00
70971;BME280;58632;51.718;19.446;2024-01-30T02:29:19;101214.61;;;-1.15;100.00
70971;BME280;58632;51.718;19.446;2024-01-30T02:31:44;101216.92;;;-1.19;100.00
70971;BME280;58632;51.718;19.446;2024-01-30T02:34:14;101220.08;;;-1.23;100.00
70971;BME280;58632;51.718;19.446;2024-01-30T02:36:45;101214.52;;;-1.29;100.00
70971;BME280;58632;51.718;19.446;2024-01-30T02:39:11;101211.82;;;-1.34;100.00
70971;BME280;58632;51.718;19.446;2024-01-30T02:41:37;101212.08;;;-1.40;100.00
70971;BME280;58632;51.718;19.446;2024-01-30T02:44:02;101214.92;;;-1.47;100.00
70971;BME280;58632;51.718;19.446;2024-01-30T02:46:28;101215.18;;;-1.55;100.00
70971;BME280;58632;51.718;19.446;2024-01-30T02:48:54;101214.48;;;-1.63;100.00
70971;BME280;58632;51.718;19.446;2024-01-30T02:51:19;101209.10;;;-1.71;100.00
70971;BME280;58632;51.718;19.446;2024-01-30T02:53:47;101206.62;;;-1.78;100.00
70971;BME280;58632;51.718;19.446;2024-01-30T02:56:13;101206.23;;;-1.84;100.00
70971;BME280;58632;51.718;19.446;2024-01-30T02:58:41;101202.61;;;-1.90;100.00
70971;BME280;58632;51.718;19.446;2024-01-30T03:01:07;101204.20;;;-1.97;100.00
70971;BME280;58632;51.718;19.446;2024-01-30T03:03:34;101203.98;;;-2.02;100.00
70971;BME280;58632;51.718;19.446;2024-01-30T03:06:01;101205.21;;;-2.07;100.00
70971;BME280;58632;51.718;19.446;2024-01-30T03:08:27;101212.77;;;-2.12;100.00
70971;BME280;58632;51.718;19.446;2024-01-30T03:10:52;101211.48;;;-2.14;100.00
70971;BME280;58632;51.718;19.446;2024-01-30T03:13:18;101205.79;;;-2.13;100.00
70971;BME280;58632;51.718;19.446;2024-01-30T03:15:43;101207.36;;;-2.11;100.00
70971;BME280;58632;51.718;19.446;2024-01-30T03:18:08;101208.40;;;-2.10;100.00
70971;BME280;58632;51.718;19.446;2024-01-30T03:20:34;101208.23;;;-2.06;100.00
70971;BME280;58632;51.718;19.446;2024-01-30T03:23:00;101212.83;;;-2.00;100.00
70971;BME280;58632;51.718;19.446;2024-01-30T03:25:25;101213.51;;;-1.96;100.00
70971;BME280;58632;51.718;19.446;2024-01-30T03:27:51;101216.35;;;-1.92;100.00
70971;BME280;58632;51.718;19.446;2024-01-30T03:30:16;101212.94;;;-1.87;100.00
70971;BME280;58632;51.718;19.446;2024-01-30T03:32:42;101209.13;;;-1.84;100.00
70971;BME280;58632;51.718;19.446;2024-01-30T03:35:08;101207.90;;;-1.83;100.00
70971;BME280;58632;51.718;19.446;2024-01-30T03:37:33;101209.98;;;-1.84;100.00
70971;BME280;58632;51.718;19.446;2024-01-30T03:39:59;101204.51;;;-1.86;100.00
70971;BME280;58632;51.718;19.446;2024-01-30T03:42:24;101205.46;;;-1.86;100.00
70971;BME280;58632;51.718;19.446;2024-01-30T03:44:50;101206.02;;;-1.87;100.00
70971;BME280;58632;51.718;19.446;2024-01-30T03:47:18;101200.00;;;-1.87;100.00
70971;BME280;58632;51.718;19.446;2024-01-30T03:49:44;101201.13;;;-1.86;100.00
70971;BME280;58632;51.718;19.446;2024-01-30T03:52:10;101200.21;;;-1.85;100.00
70971;BME280;58632;51.718;19.446;2024-01-30T03:54:35;101198.77;;;-1.83;100.00
70971;BME280;58632;51.718;19.446;2024-01-30T03:57:01;101197.70;;;-1.81;100.00
70971;BME280;58632;51.718;19.446;2024-01-30T03:59:26;101197.23;;;-1.80;100.00
70971;BME280;58632;51.718;19.446;2024-01-30T04:01:51;101197.28;;;-1.80;100.00
70971;BME280;58632;51.718;19.446;2024-01-30T04:04:17;101196.36;;;-1.80;100.00
70971;BME280;58632;51.718;19.446;2024-01-30T04:06:43;101194.47;;;-1.81;100.00
70971;BME280;58632;51.718;19.446;2024-01-30T04:09:09;101192.77;;;-1.82;100.00
70971;BME280;58632;51.718;19.446;2024-01-30T04:11:36;101198.64;;;-1.85;100.00
70971;BME280;58632;51.718;19.446;2024-01-30T04:14:02;101194.88;;;-1.89;100.00
70971;BME280;58632;51.718;19.446;2024-01-30T04:16:28;101198.01;;;-1.92;100.00
70971;BME280;58632;51.718;19.446;2024-01-30T04:18:53;101200.23;;;-1.96;100.00
70971;BME280;58632;51.718;19.446;2024-01-30T04:21:20;101199.91;;;-2.00;100.00
70971;BME280;58632;51.718;19.446;2024-01-30T04:23:46;101200.10;;;-2.04;100.00
70971;BME280;58632;51.718;19.446;2024-01-30T04:26:12;101198.56;;;-2.09;100.00
70971;BME280;58632;51.718;19.446;2024-01-30T04:28:37;101199.80;;;-2.14;100.00
70971;BME280;58632;51.718;19.446;2024-01-30T04:31:03;101196.08;;;-2.16;100.00
70971;BME280;58632;51.718;19.446;2024-01-30T04:33:28;101195.05;;;-2.17;100.00
70971;BME280;58632;51.718;19.446;2024-01-30T04:35:54;101193.91;;;-2.18;100.00
70971;BME280;58632;51.718;19.446;2024-01-30T04:38:19;101198.39;;;-2.17;100.00
70971;BME280;58632;51.718;19.446;2024-01-30T04:40:45;101199.09;;;-2.14;100.00
70971;BME280;58632;51.718;19.446;2024-01-30T04:43:10;101197.23;;;-2.10;100.00
70971;BME280;58632;51.718;19.446;2024-01-30T04:45:35;101195.06;;;-2.08;100.00
70971;BME280;58632;51.718;19.446;2024-01-30T04:48:01;101196.92;;;-2.04;100.00
70971;BME280;58632;51.718;19.446;2024-01-30T04:50:28;101194.95;;;-2.02;100.00
70971;BME280;58632;51.718;19.446;2024-01-30T04:52:54;101194.05;;;-1.99;100.00
70971;BME280;58632;51.718;19.446;2024-01-30T04:55:19;101190.98;;;-1.99;100.00
70971;BME280;58632;51.718;19.446;2024-01-30T04:57:44;101193.71;;;-1.99;100.00
70971;BME280;58632;51.718;19.446;2024-01-30T05:00:10;101192.02;;;-2.01;100.00
70971;BME280;58632;51.718;19.446;2024-01-30T05:02:36;101194.74;;;-2.01;100.00
70971;BME280;58632;51.718;19.446;2024-01-30T05:05:01;101193.14;;;-1.99;100.00
70971;BME280;58632;51.718;19.446;2024-01-30T05:07:29;101195.86;;;-1.91;100.00
70971;BME280;58632;51.718;19.446;2024-01-30T05:09:54;101195.91;;;-1.85;100.00
70971;BME280;58632;51.718;19.446;2024-01-30T05:12:19;101196.88;;;-1.79;100.00
70971;BME280;58632;51.718;19.446;2024-01-30T05:14:45;101196.25;;;-1.71;100.00
70971;BME280;58632;51.718;19.446;2024-01-30T05:17:11;101192.90;;;-1.65;100.00
70971;BME280;58632;51.718;19.446;2024-01-30T05:19:38;101195.98;;;-1.58;100.00
70971;BME280;58632;51.718;19.446;2024-01-30T05:22:03;101198.45;;;-1.53;100.00
70971;BME280;58632;51.718;19.446;2024-01-30T05:24:29;101196.38;;;-1.48;100.00
70971;BME280;58632;51.718;19.446;2024-01-30T05:26:54;101200.95;;;-1.44;100.00
70971;BME280;58632;51.718;19.446;2024-01-30T05:29:20;101200.59;;;-1.41;100.00
70971;BME280;58632;51.718;19.446;2024-01-30T05:31:45;101202.08;;;-1.40;100.00
70971;BME280;58632;51.718;19.446;2024-01-30T05:34:11;101202.44;;;-1.40;100.00
70971;BME280;58632;51.718;19.446;2024-01-30T05:36:36;101203.23;;;-1.42;100.00
70971;BME280;58632;51.718;19.446;2024-01-30T05:39:02;101202.80;;;-1.44;100.00
70971;BME280;58632;51.718;19.446;2024-01-30T05:41:27;101201.54;;;-1.46;100.00
70971;BME280;58632;51.718;19.446;2024-01-30T05:43:53;101202.33;;;-1.50;100.00
70971;BME280;58632;51.718;19.446;2024-01-30T05:46:18;101199.27;;;-1.54;100.00
70971;BME280;58632;51.718;19.446;2024-01-30T05:48:44;101198.77;;;-1.58;100.00
70971;BME280;58632;51.718;19.446;2024-01-30T05:51:09;101202.00;;;-1.63;100.00
70971;BME280;58632;51.718;19.446;2024-01-30T05:53:35;101201.88;;;-1.69;100.00
70971;BME280;58632;51.718;19.446;2024-01-30T05:56:03;101204.77;;;-1.71;100.00
70971;BME280;58632;51.718;19.446;2024-01-30T05:58:31;101204.85;;;-1.71;100.00
70971;BME280;58632;51.718;19.446;2024-01-30T06:00:57;101204.73;;;-1.70;100.00
70971;BME280;58632;51.718;19.446;2024-01-30T06:03:23;101205.14;;;-1.66;100.00
70971;BME280;58632;51.718;19.446;2024-01-30T06:05:48;101205.92;;;-1.63;100.00
70971;BME280;58632;51.718;19.446;2024-01-30T06:08:14;101209.21;;;-1.61;100.00
70971;BME280;58632;51.718;19.446;2024-01-30T06:10:39;101210.77;;;-1.60;100.00
70971;BME280;58632;51.718;19.446;2024-01-30T06:13:05;101206.21;;;-1.59;100.00
70971;BME280;58632;51.718;19.446;2024-01-30T06:15:31;101209.81;;;-1.59;100.00
70971;BME280;58632;51.718;19.446;2024-01-30T06:17:59;101217.86;;;-1.59;100.00
70971;BME280;58632;51.718;19.446;2024-01-30T06:20:24;101217.16;;;-1.59;100.00
70971;BME280;58632;51.718;19.446;2024-01-30T06:22:50;101215.73;;;-1.60;100.00
70971;BME280;58632;51.718;19.446;2024-01-30T06:25:15;101216.31;;;-1.62;100.00
70971;BME280;58632;51.718;19.446;2024-01-30T06:27:42;101212.70;;;-1.64;100.00
70971;BME280;58632;51.718;19.446;2024-01-30T06:30:10;101211.83;;;-1.67;100.00
70971;BME280;58632;51.718;19.446;2024-01-30T06:32:35;101217.66;;;-1.69;100.00
70971;BME280;58632;51.718;19.446;2024-01-30T06:35:01;101216.17;;;-1.67;100.00
70971;BME280;58632;51.718;19.446;2024-01-30T06:37:27;101216.92;;;-1.64;100.00
70971;BME280;58632;51.718;19.446;2024-01-30T06:39:52;101218.08;;;-1.59;100.00
70971;BME280;58632;51.718;19.446;2024-01-30T06:42:18;101219.06;;;-1.53;100.00
70971;BME280;58632;51.718;19.446;2024-01-30T06:44:44;101216.42;;;-1.47;100.00
70971;BME280;58632;51.718;19.446;2024-01-30T06:47:09;101218.56;;;-1.40;100.00
70971;BME280;58632;51.718;19.446;2024-01-30T06:49:35;101219.84;;;-1.32;100.00
70971;BME280;58632;51.718;19.446;2024-01-30T06:52:04;101219.76;;;-1.26;100.00
70971;BME280;58632;51.718;19.446;2024-01-30T06:54:30;101218.91;;;-1.20;100.00
70971;BME280;58632;51.718;19.446;2024-01-30T06:56:55;101219.45;;;-1.15;100.00
70971;BME280;58632;51.718;19.446;2024-01-30T06:59:23;101220.39;;;-1.10;100.00
70971;BME280;58632;51.718;19.446;2024-01-30T07:01:48;101225.84;;;-1.05;100.00
70971;BME280;58632;51.718;19.446;2024-01-30T07:04:14;101225.17;;;-1.00;100.00
70971;BME280;58632;51.718;19.446;2024-01-30T07:06:39;101226.11;;;-0.94;100.00
70971;BME280;58632;51.718;19.446;2024-01-30T07:09:05;101223.13;;;-0.83;100.00
70971;BME280;58632;51.718;19.446;2024-01-30T07:11:30;101220.88;;;-0.70;100.00
70971;BME280;58632;51.718;19.446;2024-01-30T07:13:55;101221.94;;;-0.57;100.00
70971;BME280;58632;51.718;19.446;2024-01-30T07:16:21;101222.48;;;-0.43;100.00
70971;BME280;58632;51.718;19.446;2024-01-30T07:18:47;101221.36;;;-0.30;100.00
70971;BME280;58632;51.718;19.446;2024-01-30T07:21:13;101221.59;;;-0.19;100.00
70971;BME280;58632;51.718;19.446;2024-01-30T07:23:38;101220.65;;;-0.07;100.00
70971;BME280;58632;51.718;19.446;2024-01-30T07:26:10;101225.96;;;0.08;100.00
70971;BME280;58632;51.718;19.446;2024-01-30T07:28:36;101227.63;;;0.24;100.00
70971;BME280;58632;51.718;19.446;2024-01-30T07:31:01;101230.10;;;0.42;100.00
70971;BME280;58632;51.718;19.446;2024-01-30T07:33:27;101232.36;;;0.61;100.00
70971;BME280;58632;51.718;19.446;2024-01-30T07:35:52;101229.55;;;0.82;100.00
70971;BME280;58632;51.718;19.446;2024-01-30T07:38:18;101232.13;;;1.03;100.00
70971;BME280;58632;51.718;19.446;2024-01-30T07:40:43;101226.94;;;1.22;100.00
70971;BME280;58632;51.718;19.446;2024-01-30T07:43:09;101225.59;;;1.42;100.00
70971;BME280;58632;51.718;19.446;2024-01-30T07:45:35;101222.73;;;1.62;100.00
70971;BME280;58632;51.718;19.446;2024-01-30T07:48:08;101224.02;;;1.81;100.00
70971;BME280;58632;51.718;19.446;2024-01-30T07:50:33;101219.98;;;1.96;100.00
70971;BME280;58632;51.718;19.446;2024-01-30T07:52:59;101216.79;;;2.10;100.00
70971;BME280;58632;51.718;19.446;2024-01-30T07:55:25;101215.61;;;2.25;100.00
70971;BME280;58632;51.718;19.446;2024-01-30T07:57:52;101215.26;;;2.42;100.00
70971;BME280;58632;51.718;19.446;2024-01-30T08:00:18;101216.20;;;2.56;100.00
70971;BME280;58632;51.718;19.446;2024-01-30T08:02:47;101212.87;;;2.73;100.00
70971;BME280;58632;51.718;19.446;2024-01-30T08:05:13;101216.73;;;2.92;100.00
70971;BME280;58632;51.718;19.446;2024-01-30T08:07:43;101216.73;;;3.07;100.00
70971;BME280;58632;51.718;19.446;2024-01-30T08:10:10;101213.73;;;3.19;100.00
70971;BME280;58632;51.718;19.446;2024-01-30T08:12:36;101216.17;;;3.31;100.00
70971;BME280;58632;51.718;19.446;2024-01-30T08:15:01;101211.69;;;3.43;100.00
70971;BME280;58632;51.718;19.446;2024-01-30T08:17:28;101218.41;;;3.56;100.00
70971;BME280;58632;51.718;19.446;2024-01-30T08:19:56;101217.59;;;3.67;100.00
70971;BME280;58632;51.718;19.446;2024-01-30T08:22:21;101217.95;;;3.77;100.00
70971;BME280;58632;51.718;19.446;2024-01-30T08:24:47;101216.27;;;3.91;100.00
70971;BME280;58632;51.718;19.446;2024-01-30T08:27:12;101215.02;;;4.03;100.00
70971;BME280;58632;51.718;19.446;2024-01-30T08:29:38;101211.96;;;4.14;100.00
70971;BME280;58632;51.718;19.446;2024-01-30T08:32:06;101211.66;;;4.16;100.00
70971;BME280;58632;51.718;19.446;2024-01-30T08:34:31;101210.38;;;4.22;100.00
70971;BME280;58632;51.718;19.446;2024-01-30T08:36:57;101204.17;;;4.28;100.00
70971;BME280;58632;51.718;19.446;2024-01-30T08:39:22;101207.20;;;4.34;100.00
70971;BME280;58632;51.718;19.446;2024-01-30T08:41:48;101208.45;;;4.36;100.00
70971;BME280;58632;51.718;19.446;2024-01-30T08:44:13;101209.59;;;4.44;100.00
70971;BME280;58632;51.718;19.446;2024-01-30T08:46:39;101210.28;;;4.53;100.00
70971;BME280;58632;51.718;19.446;2024-01-30T08:49:04;101212.17;;;4.58;100.00
70971;BME280;58632;51.718;19.446;2024-01-30T08:51:30;101215.77;;;4.57;100.00
70971;BME280;58632;51.718;19.446;2024-01-30T08:53:55;101216.06;;;4.55;100.00
70971;BME280;58632;51.718;19.446;2024-01-30T08:56:21;101212.42;;;4.58;100.00
70971;BME280;58632;51.718;19.446;2024-01-30T08:58:46;101208.40;;;4.61;100.00
70971;BME280;58632;51.718;19.446;2024-01-30T09:01:12;101208.06;;;4.67;100.00
70971;BME280;58632;51.718;19.446;2024-01-30T09:03:37;101205.61;;;4.70;100.00
70971;BME280;58632;51.718;19.446;2024-01-30T09:06:09;101205.93;;;4.73;100.00
70971;BME280;58632;51.718;19.446;2024-01-30T09:08:35;101203.22;;;4.73;100.00
70971;BME280;58632;51.718;19.446;2024-01-30T09:11:00;101202.64;;;4.75;100.00
70971;BME280;58632;51.718;19.446;2024-01-30T09:13:26;101203.67;;;4.78;100.00
70971;BME280;58632;51.718;19.446;2024-01-30T09:15:51;101198.93;;;4.81;100.00
70971;BME280;58632;51.718;19.446;2024-01-30T09:18:18;101193.78;;;4.89;100.00
70971;BME280;58632;51.718;19.446;2024-01-30T09:20:43;101191.47;;;4.98;100.00
70971;BME280;58632;51.718;19.446;2024-01-30T09:23:10;101191.17;;;5.04;100.00
70971;BME280;58632;51.718;19.446;2024-01-30T09:25:36;101191.91;;;5.11;100.00
70971;BME280;58632;51.718;19.446;2024-01-30T09:28:01;101195.52;;;5.16;100.00
70971;BME280;58632;51.718;19.446;2024-01-30T09:30:26;101194.52;;;5.15;100.00
70971;BME280;58632;51.718;19.446;2024-01-30T09:32:52;101194.08;;;5.15;100.00
70971;BME280;58632;51.718;19.446;2024-01-30T09:35:17;101189.15;;;5.20;100.00
70971;BME280;58632;51.718;19.446;2024-01-30T09:37:42;101186.73;;;5.25;100.00
70971;BME280;58632;51.718;19.446;2024-01-30T09:40:11;101186.06;;;5.33;100.00
70971;BME280;58632;51.718;19.446;2024-01-30T09:42:37;101184.77;;;5.38;100.00
70971;BME280;58632;51.718;19.446;2024-01-30T09:45:02;101185.95;;;5.41;100.00
70971;BME280;58632;51.718;19.446;2024-01-30T09:47:38;101180.89;;;5.45;100.00
70971;BME280;58632;51.718;19.446;2024-01-30T09:50:05;101182.78;;;5.49;100.00
70971;BME280;58632;51.718;19.446;2024-01-30T09:52:31;101180.36;;;5.52;100.00
70971;BME280;58632;51.718;19.446;2024-01-30T09:54:57;101180.20;;;5.56;100.00
70971;BME280;58632;51.718;19.446;2024-01-30T09:57:24;101178.64;;;5.62;100.00
70971;BME280;58632;51.718;19.446;2024-01-30T09:59:51;101174.64;;;5.69;100.00
70971;BME280;58632;51.718;19.446;2024-01-30T10:02:19;101169.72;;;5.76;100.00
70971;BME280;58632;51.718;19.446;2024-01-30T10:04:47;101167.29;;;5.84;100.00
70971;BME280;58632;51.718;19.446;2024-01-30T10:07:12;101167.70;;;5.88;100.00
70971;BME280;58632;51.718;19.446;2024-01-30T10:09:39;101162.42;;;5.92;100.00
70971;BME280;58632;51.718;19.446;2024-01-30T10:12:05;101160.81;;;5.97;100.00
70971;BME280;58632;51.718;19.446;2024-01-30T10:14:30;101156.65;;;6.00;100.00
70971;BME280;58632;51.718;19.446;2024-01-30T10:16:57;101150.76;;;6.04;100.00
70971;BME280;58632;51.718;19.446;2024-01-30T10:19:22;101153.97;;;6.11;100.00
70971;BME280;58632;51.718;19.446;2024-01-30T10:21:48;101155.23;;;6.14;100.00
70971;BME280;58632;51.718;19.446;2024-01-30T10:24:13;101152.59;;;6.14;100.00
70971;BME280;58632;51.718;19.446;2024-01-30T10:26:39;101147.06;;;6.17;100.00
70971;BME280;58632;51.718;19.446;2024-01-30T10:29:04;101144.88;;;6.21;100.00
70971;BME280;58632;51.718;19.446;2024-01-30T10:31:30;101144.52;;;6.25;100.00
70971;BME280;58632;51.718;19.446;2024-01-30T10:33:55;101141.13;;;6.29;100.00
70971;BME280;58632;51.718;19.446;2024-01-30T10:36:21;101137.11;;;6.32;100.00
70971;BME280;58632;51.718;19.446;2024-01-30T10:38:51;101134.29;;;6.40;100.00
70971;BME280;58632;51.718;19.446;2024-01-30T10:41:16;101135.33;;;6.48;100.00
70971;BME280;58632;51.718;19.446;2024-01-30T10:43:48;101131.57;;;6.55;100.00
70971;BME280;58632;51.718;19.446;2024-01-30T10:46:19;101130.52;;;6.61;100.00
70971;BME280;58632;51.718;19.446;2024-01-30T10:48:57;101131.70;;;6.66;100.00
70971;BME280;58632;51.718;19.446;2024-01-30T10:51:24;101132.05;;;6.71;100.00
70971;BME280;58632;51.718;19.446;2024-01-30T10:53:51;101129.08;;;6.75;100.00
70971;BME280;58632;51.718;19.446;2024-01-30T10:56:17;101124.17;;;6.76;100.00
70971;BME280;58632;51.718;19.446;2024-01-30T10:58:45;101125.57;;;6.80;100.00
70971;BME280;58632;51.718;19.446;2024-01-30T11:01:11;101121.67;;;6.84;100.00
70971;BME280;58632;51.718;19.446;2024-01-30T11:03:36;101118.70;;;6.89;100.00
70971;BME280;58632;51.718;19.446;2024-01-30T11:06:02;101117.85;;;6.96;100.00
70971;BME280;58632;51.718;19.446;2024-01-30T11:08:28;101112.66;;;7.04;100.00
70971;BME280;58632;51.718;19.446;2024-01-30T11:10:56;101105.16;;;7.08;100.00
70971;BME280;58632;51.718;19.446;2024-01-30T11:13:26;101102.83;;;7.08;100.00
70971;BME280;58632;51.718;19.446;2024-01-30T11:15:51;101102.51;;;7.09;100.00
70971;BME280;58632;51.718;19.446;2024-01-30T11:18:28;101098.04;;;7.08;100.00
70971;BME280;58632;51.718;19.446;2024-01-30T11:20:55;101093.84;;;7.08;100.00
70971;BME280;58632;51.718;19.446;2024-01-30T11:23:22;101094.73;;;7.06;100.00
70971;BME280;58632;51.718;19.446;2024-01-30T11:25:47;101083.64;;;7.07;100.00
70971;BME280;58632;51.718;19.446;2024-01-30T11:28:14;101082.45;;;7.07;100.00
70971;BME280;58632;51.718;19.446;2024-01-30T11:30:43;101086.41;;;7.07;100.00
70971;BME280;58632;51.718;19.446;2024-01-30T11:33:10;101082.18;;;7.09;100.00
70971;BME280;58632;51.718;19.446;2024-01-30T11:35:37;101077.61;;;7.14;100.00
70971;BME280;58632;51.718;19.446;2024-01-30T11:38:04;101074.09;;;7.18;100.00
70971;BME280;58632;51.718;19.446;2024-01-30T11:40:29;101070.52;;;7.22;100.00
70971;BME280;58632;51.718;19.446;2024-01-30T11:42:55;101065.28;;;7.25;100.00
70971;BME280;58632;51.718;19.446;2024-01-30T11:45:21;101064.04;;;7.28;100.00
70971;BME280;58632;51.718;19.446;2024-01-30T11:47:46;101060.73;;;7.29;100.00
70971;BME280;58632;51.718;19.446;2024-01-30T11:50:12;101053.96;;;7.28;99.74
70971;BME280;58632;51.718;19.446;2024-01-30T11:52:37;101050.64;;;7.28;99.92
70971;BME280;58632;51.718;19.446;2024-01-30T11:55:03;101051.67;;;7.27;100.00
70971;BME280;58632;51.718;19.446;2024-01-30T11:57:29;101048.45;;;7.26;99.74
70971;BME280;58632;51.718;19.446;2024-01-30T11:59:54;101044.85;;;7.26;100.00
70971;BME280;58632;51.718;19.446;2024-01-30T12:02:20;101044.91;;;7.26;100.00
70971;BME280;58632;51.718;19.446;2024-01-30T12:04:45;101043.39;;;7.27;100.00
70971;BME280;58632;51.718;19.446;2024-01-30T12:07:11;101043.94;;;7.28;100.00
70971;BME280;58632;51.718;19.446;2024-01-30T12:09:37;101043.12;;;7.30;100.00
70971;BME280;58632;51.718;19.446;2024-01-30T12:12:02;101037.23;;;7.33;99.92
70971;BME280;58632;51.718;19.446;2024-01-30T12:14:28;101037.90;;;7.36;99.23
70971;BME280;58632;51.718;19.446;2024-01-30T12:16:54;101034.41;;;7.38;100.00
70971;BME280;58632;51.718;19.446;2024-01-30T12:19:22;101029.68;;;7.40;100.00
70971;BME280;58632;51.718;19.446;2024-01-30T12:21:53;101030.33;;;7.40;99.40
70971;BME280;58632;51.718;19.446;2024-01-30T12:24:18;101032.23;;;7.40;100.00
70971;BME280;58632;51.718;19.446;2024-01-30T12:26:44;101028.75;;;7.40;99.54
70971;BME280;58632;51.718;19.446;2024-01-30T12:29:09;101027.82;;;7.37;96.39
70971;BME280;58632;51.718;19.446;2024-01-30T12:31:35;101027.70;;;7.34;97.40